Time;durP1;ratioP1;P1;durP2;ratioP2;P2;SDS_P1;SDS_P2;PMS_P1;PMS_P2;Temp;Humidity;BMP_temperature;BMP_pressure;BME280_temperature;BME280_humidity;BME280_pressure;Samples;Min_cycle;Max_cycle;Signal;HPM_P1;HPM_P2
2021/05/31 00:01:53;;;;;;;6.95;1.80;;;;;;;10.82;49.71;99531.16;4994325;28;20058;-88
2021/05/31 00:04:21;;;;;;;2.33;1.75;;;;;;;10.72;49.70;99517.78;4985465;28;20065;-88
2021/05/31 00:06:51;;;;;;;3.28;1.67;;;;;;;10.74;49.42;99523.88;4989786;28;20043;-89
2021/05/31 00:09:17;;;;;;;4.28;1.77;;;;;;;10.83;48.95;99534.75;4993466;28;20050;-88
2021/05/31 00:11:44;;;;;;;4.03;1.50;;;;;;;10.68;49.07;99510.16;4994054;28;20054;-88
2021/05/31 00:14:18;;;;;;;2.15;1.55;;;;;;;10.75;48.64;99522.03;4993609;28;20050;-88
2021/05/31 00:16:46;;;;;;;2.45;1.67;;;;;;;10.79;48.45;99521.50;4993449;28;20476;-88
2021/05/31 00:19:14;;;;;;;1.98;1.30;;;;;;;10.80;48.09;99516.91;4992564;28;20050;-88
2021/05/31 00:21:40;;;;;;;1.30;1.20;;;;;;;10.75;48.60;99503.00;4993261;28;20141;-88
2021/05/31 00:24:07;;;;;;;2.90;1.50;;;;;;;10.83;47.99;99502.09;4993283;28;20076;-87
2021/05/31 00:26:34;;;;;;;3.72;1.65;;;;;;;10.85;47.85;99505.47;4993209;28;20285;-89
2021/05/31 00:29:01;;;;;;;8.90;1.52;;;;;;;10.91;47.72;99516.47;4992573;28;20050;-87
2021/05/31 00:31:27;;;;;;;2.03;1.55;;;;;;;10.77;47.53;99484.63;4994480;28;20082;-87
2021/05/31 00:33:54;;;;;;;4.05;1.65;;;;;;;10.76;48.12;99482.91;4992076;28;20057;-87
2021/05/31 00:36:21;;;;;;;3.75;1.52;;;;;;;10.74;48.16;99496.69;4992785;28;20077;-87
2021/05/31 00:38:47;;;;;;;6.10;1.48;;;;;;;10.71;48.93;99499.75;4993041;28;20470;-87
2021/05/31 00:41:14;;;;;;;2.42;1.30;;;;;;;10.82;48.31;99508.56;4993438;28;20046;-87
2021/05/31 00:43:41;;;;;;;5.28;1.60;;;;;;;10.75;48.76;99505.72;4991648;28;20106;-87
2021/05/31 00:46:09;;;;;;;2.33;1.45;;;;;;;10.70;48.54;99497.22;4993598;28;20482;-87
2021/05/31 00:48:37;;;;;;;3.08;1.65;;;;;;;10.80;48.79;99512.28;4993500;28;20108;-88
2021/05/31 00:51:07;;;;;;;5.43;1.67;;;;;;;10.74;49.71;99507.56;4993100;28;20057;-88
2021/05/31 00:53:38;;;;;;;5.57;1.60;;;;;;;10.74;49.43;99514.88;4992543;28;20075;-87
2021/05/31 00:56:07;;;;;;;4.50;1.70;;;;;;;10.72;49.60;99514.19;4991907;28;20046;-87
2021/05/31 00:58:34;;;;;;;6.07;1.77;;;;;;;10.58;49.81;99494.91;4992943;28;20054;-87
2021/05/31 01:01:02;;;;;;;6.00;1.70;;;;;;;10.58;49.57;99492.19;4989295;28;20046;-87
2021/05/31 01:03:29;;;;;;;2.78;1.48;;;;;;;10.49;49.36;99482.34;4992518;28;20141;-86
2021/05/31 01:05:57;;;;;;;2.85;1.98;;;;;;;10.51;49.87;99499.34;4992207;28;20043;-87
2021/05/31 01:08:32;;;;;;;4.50;1.40;;;;;;;10.56;49.79;99493.38;4993078;28;20074;-87
2021/05/31 01:11:03;;;;;;;3.90;1.50;;;;;;;10.50;49.68;99485.94;4991844;28;20069;-87
2021/05/31 01:13:42;;;;;;;2.85;1.80;;;;;;;10.43;49.89;99488.50;4997749;28;20060;-88
2021/05/31 01:16:13;;;;;;;2.22;1.30;;;;;;;10.51;49.61;99487.63;4996140;28;20189;-87
2021/05/31 01:18:42;;;;;;;2.83;1.63;;;;;;;10.60;49.70;99492.84;4998227;28;20495;-87
2021/05/31 01:21:23;;;;;;;14.13;2.75;;;;;;;10.51;50.06;99493.91;4999027;28;20117;-86
2021/05/31 01:24:02;;;;;;;3.90;1.77;;;;;;;10.36;49.65;99482.09;5002559;28;20051;-87
2021/05/31 01:26:41;;;;;;;4.80;1.50;;;;;;;10.53;49.96;99507.34;4993914;28;20137;-87
2021/05/31 01:29:13;;;;;;;5.75;2.60;;;;;;;10.38;50.24;99482.75;4998666;28;20050;-88
2021/05/31 01:31:46;;;;;;;5.22;1.65;;;;;;;10.51;50.04;99504.78;4991716;28;20050;-86
2021/05/31 01:34:16;;;;;;;2.47;1.60;;;;;;;10.48;49.69;99486.13;4992355;28;20042;-86
2021/05/31 01:36:45;;;;;;;2.38;1.65;;;;;;;10.47;50.09;99480.84;4993060;28;20050;-87
2021/05/31 01:39:18;;;;;;;3.58;1.73;;;;;;;10.44;50.76;99493.75;4993695;28;20065;-89
2021/05/31 01:41:46;;;;;;;7.88;1.83;;;;;;;10.47;50.45;99480.84;4993770;28;20050;-88
2021/05/31 01:44:17;;;;;;;4.40;1.50;;;;;;;10.51;50.57;99484.91;5001624;28;20375;-88
2021/05/31 01:46:44;;;;;;;2.70;1.60;;;;;;;10.36;50.55;99460.34;5013771;28;20057;-88
2021/05/31 01:49:12;;;;;;;3.55;1.85;;;;;;;10.45;51.14;99478.31;5013466;28;20131;-88
2021/05/31 01:51:39;;;;;;;4.35;1.77;;;;;;;10.36;50.28;99468.50;5012714;28;20050;-86
2021/05/31 01:54:07;;;;;;;8.68;1.83;;;;;;;10.30;50.86;99456.44;4996702;28;20046;-87
2021/05/31 01:56:40;;;;;;;2.67;1.75;;;;;;;10.34;50.95;99457.81;4981778;28;20061;-88
2021/05/31 01:59:07;;;;;;;2.30;1.80;;;;;;;10.32;51.71;99462.53;4993392;28;20057;-87
2021/05/31 02:01:35;;;;;;;3.67;1.70;;;;;;;10.26;51.33;99455.09;4993098;28;20137;-87
2021/05/31 02:04:02;;;;;;;2.50;1.90;;;;;;;10.27;51.15;99459.50;4993348;28;20047;-87
2021/05/31 02:06:28;;;;;;;2.47;1.50;;;;;;;10.31;51.51;99485.28;4996194;28;20050;-88
2021/05/31 02:08:55;;;;;;;2.88;1.58;;;;;;;10.26;51.47;99466.78;4995718;28;20063;-86
2021/05/31 02:11:29;;;;;;;2.40;1.77;;;;;;;10.20;51.83;99470.22;4996625;28;20054;-87
2021/05/31 02:14:00;;;;;;;10.82;1.52;;;;;;;10.14;52.66;99460.03;4996245;28;20054;-86
2021/05/31 02:16:34;;;;;;;1.85;1.60;;;;;;;10.17;52.13;99480.59;4996151;28;20051;-85
2021/05/31 02:19:04;;;;;;;4.78;1.80;;;;;;;10.09;51.55;99463.28;4988302;28;20067;-86
2021/05/31 02:21:33;;;;;;;5.75;1.70;;;;;;;10.15;51.82;99471.78;4995886;28;20050;-85
2021/05/31 02:24:01;;;;;;;5.53;1.92;;;;;;;10.10;52.28;99466.84;4990977;28;20054;-85
2021/05/31 02:26:28;;;;;;;2.83;1.83;;;;;;;10.06;52.59;99460.09;4990864;28;20054;-85
2021/05/31 02:28:55;;;;;;;3.47;1.80;;;;;;;9.98;52.38;99458.25;4996448;28;20054;-85
2021/05/31 02:31:24;;;;;;;2.78;2.00;;;;;;;10.06;52.76;99470.94;4995928;28;20046;-84
2021/05/31 02:33:51;;;;;;;2.85;1.52;;;;;;;10.05;53.37;99480.09;4995644;28;20105;-85
2021/05/31 02:36:19;;;;;;;3.70;1.80;;;;;;;9.89;52.97;99468.28;4994897;28;20057;-85
2021/05/31 02:38:46;;;;;;;2.00;1.63;;;;;;;9.86;53.37;99474.06;4995416;28;20100;-84
2021/05/31 02:41:26;;;;;;;5.50;1.92;;;;;;;9.77;53.39;99457.94;4995600;28;20046;-86
2021/05/31 02:43:53;;;;;;;3.38;1.73;;;;;;;9.83;53.88;99482.53;4983774;28;20052;-86
2021/05/31 02:46:19;;;;;;;2.28;1.67;;;;;;;9.79;54.31;99489.34;4995575;28;20506;-86
2021/05/31 02:48:46;;;;;;;3.30;2.00;;;;;;;9.80;53.70;99482.03;4995091;28;20046;-86
2021/05/31 02:51:12;;;;;;;3.28;1.98;;;;;;;9.72;53.98;99469.31;4994947;28;20046;-86
2021/05/31 02:53:40;;;;;;;3.83;1.92;;;;;;;9.72;54.37;99481.00;4986953;28;20050;-86
2021/05/31 02:56:07;;;;;;;2.40;1.52;;;;;;;9.71;54.63;99476.63;4994953;28;20046;-86
2021/05/31 02:58:33;;;;;;;3.20;2.00;;;;;;;9.57;54.70;99458.28;4992967;28;20517;-86
2021/05/31 03:01:00;;;;;;;8.68;2.22;;;;;;;9.66;54.36;99475.44;4994896;28;20409;-85
2021/05/31 03:03:26;;;;;;;6.30;2.10;;;;;;;9.54;55.03;99467.66;4977855;28;20049;-86
2021/05/31 03:05:52;;;;;;;4.70;2.10;;;;;;;9.61;55.23;99477.81;4994048;28;20038;-86
2021/05/31 03:08:19;;;;;;;4.45;1.60;;;;;;;9.52;55.54;99466.13;4989509;28;20050;-85
2021/05/31 03:10:47;;;;;;;3.88;2.10;;;;;;;9.63;54.55;99486.63;4994114;28;20050;-84
2021/05/31 03:13:13;;;;;;;4.80;1.90;;;;;;;9.51;55.04;99473.41;4993879;28;20042;-84
2021/05/31 03:15:41;;;;;;;3.72;1.55;;;;;;;9.56;55.10;99484.59;4993654;28;20057;-86
2021/05/31 03:18:08;;;;;;;2.28;1.98;;;;;;;9.61;54.96;99494.09;4994007;28;20050;-85
2021/05/31 03:20:34;;;;;;;3.22;1.95;;;;;;;9.52;55.39;99485.13;4993985;28;20109;-85
2021/05/31 03:23:01;;;;;;;6.03;2.15;;;;;;;9.53;55.30;99489.53;4993963;28;20054;-84
2021/05/31 03:25:28;;;;;;;5.15;1.92;;;;;;;9.48;56.00;99478.31;4993874;28;20061;-84
2021/05/31 03:27:58;;;;;;;2.13;1.85;;;;;;;9.46;56.18;99489.34;4993246;28;20061;-85
2021/05/31 03:30:25;;;;;;;2.85;1.85;;;;;;;9.28;56.17;99467.81;4993904;28;20046;-85
2021/05/31 03:32:51;;;;;;;3.78;1.73;;;;;;;9.30;56.39;99479.34;4993342;28;20046;-85
2021/05/31 03:35:18;;;;;;;3.03;2.20;;;;;;;9.25;56.37;99468.16;4993152;28;20435;-85
2021/05/31 03:37:45;;;;;;;3.67;2.15;;;;;;;9.35;56.93;99484.28;4994367;28;20058;-85
2021/05/31 03:40:15;;;;;;;4.95;1.70;;;;;;;9.39;56.73;99485.63;4993447;28;20391;-85
2021/05/31 03:42:41;;;;;;;2.72;1.75;;;;;;;9.36;56.77;99494.97;4970013;28;20046;-85
2021/05/31 03:45:11;;;;;;;4.43;1.77;;;;;;;9.32;56.83;99495.44;4993125;28;20054;-85
2021/05/31 03:47:38;;;;;;;3.85;1.75;;;;;;;9.35;57.28;99497.84;4993839;28;20498;-85
2021/05/31 03:50:06;;;;;;;2.65;1.83;;;;;;;9.24;57.24;99484.59;4989211;28;20405;-85
2021/05/31 03:52:33;;;;;;;11.95;2.15;;;;;;;9.18;57.72;99492.41;4993472;28;20458;-86
2021/05/31 03:55:48;;;;;;;2.72;1.70;;;;;;;9.21;56.99;99486.66;4992771;28;20474;-85
2021/05/31 03:58:18;;;;;;;7.07;2.33;;;;;;;9.27;57.84;99479.66;4993631;28;20050;-86
2021/05/31 04:00:46;;;;;;;1.95;1.73;;;;;;;9.22;57.91;99490.19;4995039;28;20066;-86
2021/05/31 04:03:12;;;;;;;2.50;1.75;;;;;;;9.18;57.74;99483.41;4995007;28;20387;-85
2021/05/31 04:05:39;;;;;;;7.18;2.10;;;;;;;9.11;58.29;99480.53;4994798;28;20057;-86
2021/05/31 04:13:33;;;;;;;3.20;1.77;;;;;;;9.16;58.45;99485.44;4987736;28;20053;-85
2021/05/31 04:16:01;;;;;;;2.80;2.00;;;;;;;9.21;58.71;99489.34;4994560;28;20513;-86
2021/05/31 04:18:27;;;;;;;3.05;2.00;;;;;;;9.25;58.77;99500.72;4994658;28;20046;-86
2021/05/31 04:20:54;;;;;;;3.80;2.10;;;;;;;9.15;58.26;99462.03;4994627;28;20054;-86
2021/05/31 04:23:20;;;;;;;2.60;1.80;;;;;;;9.37;58.04;99483.06;4994712;28;20051;-85
2021/05/31 04:25:46;;;;;;;6.65;2.05;;;;;;;9.31;58.12;99472.91;4994481;28;20661;-86
2021/05/31 04:28:13;;;;;;;4.13;2.28;;;;;;;9.29;58.77;99460.50;4993585;28;20058;-86
2021/05/31 04:30:39;;;;;;;4.97;1.80;;;;;;;9.50;58.07;99498.00;4994433;28;20482;-86
2021/05/31 04:33:07;;;;;;;2.67;1.73;;;;;;;9.49;58.00;99483.59;4999298;28;20100;-86
2021/05/31 04:35:33;;;;;;;3.53;2.00;;;;;;;9.59;58.29;99490.69;4982787;28;20050;-86
2021/05/31 04:38:00;;;;;;;2.70;1.75;;;;;;;9.59;57.31;99480.72;4994284;28;20057;-86
2021/05/31 04:40:27;;;;;;;3.55;2.20;;;;;;;9.67;57.55;99480.69;4993907;28;20085;-85
2021/05/31 04:42:53;;;;;;;5.10;1.90;;;;;;;9.72;58.03;99485.59;4994155;28;20074;-85
2021/05/31 04:45:20;;;;;;;2.70;2.03;;;;;;;9.81;57.67;99492.72;4993185;28;20050;-85
2021/05/31 04:47:47;;;;;;;6.30;1.92;;;;;;;9.84;57.06;99478.78;4994070;28;20054;-85
2021/05/31 04:50:15;;;;;;;2.35;1.90;;;;;;;9.80;57.83;99468.44;4993790;28;20057;-86
2021/05/31 04:52:41;;;;;;;1.70;1.50;;;;;;;9.99;57.03;99483.53;4993882;28;20065;-85
2021/05/31 04:55:14;;;;;;;3.53;1.85;;;;;;;10.09;56.69;99489.63;4993912;28;20058;-85
2021/05/31 04:57:41;;;;;;;2.38;1.75;;;;;;;10.24;56.65;99477.00;4994362;28;20153;-85
2021/05/31 05:00:08;;;;;;;3.28;2.30;;;;;;;10.95;55.21;99490.63;4993562;28;20053;-86
2021/05/31 05:02:35;;;;;;;4.65;1.88;;;;;;;11.60;52.76;99483.00;4992699;28;20097;-86
2021/05/31 05:05:01;;;;;;;3.92;2.10;;;;;;;12.18;50.98;99482.47;4993162;28;20506;-86
2021/05/31 05:07:29;;;;;;;3.80;1.83;;;;;;;12.70;48.50;99491.53;4992681;28;20046;-86
2021/05/31 05:09:55;;;;;;;4.80;1.98;;;;;;;13.39;49.00;99492.97;4992851;28;20137;-86
2021/05/31 05:12:22;;;;;;;3.00;2.22;;;;;;;13.37;48.66;99490.44;4992961;28;20053;-86
2021/05/31 05:14:50;;;;;;;3.00;2.00;;;;;;;13.28;49.19;99480.66;4992760;28;20089;-87
2021/05/31 05:17:16;;;;;;;3.13;1.92;;;;;;;13.52;48.80;99492.22;4997052;28;20051;-86
2021/05/31 05:19:43;;;;;;;2.90;2.00;;;;;;;13.82;48.05;99498.41;4998999;28;20054;-87
2021/05/31 05:22:09;;;;;;;4.20;2.03;;;;;;;13.76;47.82;99497.28;4994118;28;20058;-87
2021/05/31 05:24:37;;;;;;;2.47;1.65;;;;;;;14.06;48.06;99479.84;4993516;28;20050;-87
2021/05/31 05:27:06;;;;;;;4.75;2.00;;;;;;;14.26;47.07;99483.56;4993950;28;20093;-87
2021/05/31 05:29:33;;;;;;;5.55;2.47;;;;;;;13.91;47.85;99479.94;4994552;28;20145;-87
2021/05/31 05:32:00;;;;;;;2.05;1.60;;;;;;;13.84;47.34;99471.72;4994183;28;20418;-87
2021/05/31 05:34:26;;;;;;;4.28;2.22;;;;;;;14.55;46.99;99492.53;4993740;28;20042;-87
2021/05/31 05:36:55;;;;;;;2.97;1.98;;;;;;;15.05;46.40;99495.09;4994007;28;20513;-87
2021/05/31 05:39:44;;;;;;;4.50;1.83;;;;;;;15.55;45.72;99492.00;4996825;28;20067;-87
2021/05/31 05:42:31;;;;;;;4.43;2.20;;;;;;;15.72;44.99;99495.22;4998249;28;20054;-87
2021/05/31 05:45:18;;;;;;;5.57;2.22;;;;;;;15.49;44.05;99487.38;4997082;28;20122;-86
2021/05/31 05:47:44;;;;;;;3.40;2.13;;;;;;;15.60;44.75;99488.66;4998043;28;20410;-88
2021/05/31 05:50:13;;;;;;;4.18;2.03;;;;;;;16.23;43.44;99507.44;4997783;28;20105;-87
2021/05/31 05:52:39;;;;;;;6.38;2.03;;;;;;;15.90;43.99;99500.09;4997738;28;20050;-87
2021/05/31 05:55:08;;;;;;;6.22;1.75;;;;;;;15.89;44.57;99492.91;4997004;28;20050;-88
2021/05/31 05:57:37;;;;;;;3.08;1.92;;;;;;;15.69;44.62;99496.47;4998163;28;20057;-88
2021/05/31 06:00:11;;;;;;;3.50;1.70;;;;;;;16.48;42.45;99504.00;4998539;28;20113;-88
2021/05/31 06:02:38;;;;;;;3.28;1.88;;;;;;;16.86;41.23;99501.34;4997809;28;20050;-88
2021/05/31 06:05:06;;;;;;;2.00;1.42;;;;;;;17.16;40.49;99506.28;4997596;28;20046;-88
2021/05/31 06:07:37;;;;;;;4.18;1.77;;;;;;;17.15;39.88;99480.72;4997623;28;20133;-88
2021/05/31 06:10:05;;;;;;;3.20;2.47;;;;;;;17.25;39.71;99491.25;4997556;28;20101;-88
2021/05/31 06:12:42;;;;;;;2.80;1.60;;;;;;;17.40;39.96;99490.09;4997539;28;20054;-89
2021/05/31 06:15:24;;;;;;;2.80;1.52;;;;;;;17.52;38.74;99486.41;4998581;28;20054;-88
2021/05/31 06:17:51;;;;;;;3.80;1.75;;;;;;;18.11;38.35;99494.44;4993475;28;20481;-88
2021/05/31 06:20:17;;;;;;;2.75;1.67;;;;;;;18.15;38.88;99492.88;4997719;28;20482;-89
2021/05/31 06:22:44;;;;;;;2.08;1.42;;;;;;;18.07;37.74;99484.09;4997878;28;20082;-89
2021/05/31 06:25:13;;;;;;;4.40;1.67;;;;;;;18.50;37.17;99497.84;4997292;28;20073;-89
2021/05/31 06:27:39;;;;;;;2.35;1.50;;;;;;;18.31;37.99;99491.47;4997479;28;20072;-90
2021/05/31 06:30:10;;;;;;;2.90;1.50;;;;;;;18.63;37.72;99499.56;4997810;28;20056;-89
2021/05/31 06:32:39;;;;;;;2.10;1.73;;;;;;;18.68;36.16;99490.63;4997294;28;20065;-89
2021/05/31 06:35:06;;;;;;;1.60;1.50;;;;;;;19.06;35.22;99501.41;4996762;28;20434;-89
2021/05/31 06:37:38;;;;;;;2.75;1.40;;;;;;;19.25;34.74;99493.09;4997071;28;20494;-89
2021/05/31 06:40:07;;;;;;;4.05;1.55;;;;;;;19.10;34.04;99488.88;4997451;28;20065;-88
2021/05/31 06:42:34;;;;;;;8.43;1.35;;;;;;;19.25;34.14;99493.97;4997140;28;20050;-89
2021/05/31 06:45:04;;;;;;;3.60;1.48;;;;;;;19.17;34.85;99482.41;4997531;28;20054;-88
2021/05/31 06:47:30;;;;;;;2.92;1.67;;;;;;;19.17;33.31;99490.69;4996871;28;20061;-89
2021/05/31 06:50:04;;;;;;;2.72;1.20;;;;;;;19.13;34.33;99489.47;4996424;28;20080;-88
2021/05/31 06:52:40;;;;;;;1.63;1.10;;;;;;;19.19;33.10;99492.09;4997243;28;20562;-89
2021/05/31 06:55:11;;;;;;;1.98;1.23;;;;;;;18.69;34.23;99504.16;4996648;28;20050;-88
2021/05/31 06:57:38;;;;;;;4.60;1.40;;;;;;;18.37;33.85;99482.28;4997222;28;20050;-89
2021/05/31 07:00:10;;;;;;;4.30;1.17;;;;;;;18.44;33.97;99481.38;4997413;28;20058;-88
2021/05/31 07:02:36;;;;;;;2.28;1.35;;;;;;;18.29;32.45;99498.25;4996639;28;20085;-84
2021/05/31 07:05:05;;;;;;;3.78;1.23;;;;;;;18.13;33.00;99485.94;4996266;28;20494;-85
2021/05/31 07:07:34;;;;;;;1.30;1.20;;;;;;;18.08;34.50;99478.38;4996313;28;20430;-87
2021/05/31 07:10:01;;;;;;;1.95;1.50;;;;;;;18.27;34.35;99492.97;4995675;28;20054;-86
2021/05/31 07:12:28;;;;;;;4.35;1.50;;;;;;;18.55;33.67;99481.47;4995102;28;20050;-86
2021/05/31 07:14:58;;;;;;;3.47;1.30;;;;;;;18.82;34.41;99478.38;4992631;28;20050;-84
2021/05/31 07:17:41;;;;;;;2.55;1.40;;;;;;;18.95;31.46;99485.66;4992725;28;20513;-88
2021/05/31 07:20:13;;;;;;;2.45;1.38;;;;;;;18.98;32.76;99482.44;4988770;28;20570;-90
2021/05/31 07:22:56;;;;;;;8.13;1.70;;;;;;;18.71;31.99;99477.25;4995047;28;20478;-90
2021/05/31 07:25:46;;;;;;;2.13;1.40;;;;;;;18.92;33.82;99488.88;4990494;28;20042;-90
2021/05/31 07:34:46;;;;;;;2.38;1.20;;;;;;;19.47;32.32;99476.06;5134045;23;20054;-90
2021/05/31 07:48:01;;;;;;;3.08;1.52;;;;;;;19.49;33.56;99477.47;4952995;28;20110;-89
2021/05/31 07:54:24;;;;;;;10.10;2.30;;;;;;;19.26;32.95;99475.50;4872054;29;20528;-89
2021/05/31 07:57:02;;;;;;;1.45;1.35;;;;;;;19.46;32.24;99477.94;4862650;29;20069;-89
2021/05/31 08:24:31;;;;;;;1.45;1.30;;;;;;;18.35;32.21;99467.06;4886453;29;20060;-88
2021/05/31 08:44:31;;;;;;;3.60;1.23;;;;;;;18.57;33.33;99478.47;4825752;29;20462;-89
2021/05/31 08:57:37;;;;;;;4.93;1.67;;;;;;;18.72;32.84;99445.88;4876948;28;20108;-88
2021/05/31 09:00:24;;;;;;;2.60;1.40;;;;;;;19.34;34.75;99466.06;5011915;28;20068;-88
2021/05/31 09:03:27;;;;;;;5.35;1.58;;;;;;;19.37;33.56;99443.53;5013888;28;20046;-88
2021/05/31 09:24:39;;;;;;;4.75;1.50;;;;;;;19.11;34.62;99440.09;4976862;28;20054;-87
2021/05/31 10:03:13;;;;;;;9.05;2.05;;;;;;;19.86;34.38;99424.94;4918578;29;20531;-86
2021/05/31 10:05:57;;;;;;;;;;;;;;;19.91;33.33;99432.47;5017396;28;20104;-88
2021/05/31 10:08:44;;;;;;;6.40;2.00;;;;;;;20.18;32.66;99427.31;4978544;28;19929;-88
2021/05/31 10:11:14;;;;;;;4.30;1.63;;;;;;;20.59;32.78;99408.00;4980068;28;20051;-88
2021/05/31 10:13:55;;;;;;;7.25;1.67;;;;;;;20.50;31.80;99402.03;4981037;28;20084;-87
2021/05/31 10:16:37;;;;;;;2.25;1.50;;;;;;;20.24;30.61;99407.00;5006520;28;20046;-88
2021/05/31 10:19:34;;;;;;;2.88;1.33;;;;;;;19.75;30.54;99410.03;5010546;28;20474;-86
2021/05/31 10:25:29;;;;;;;2.30;1.38;;;;;;;20.07;30.02;99431.75;4995694;28;20711;-87
2021/05/31 10:28:28;;;;;;;1.73;1.33;;;;;;;19.88;31.12;99403.44;4992589;28;20046;-88
2021/05/31 11:07:04;;;;;;;1.58;1.35;;;;;;;21.77;27.64;99381.69;4779954;29;20066;-89
2021/05/31 11:10:38;;;;;;;1.45;1.35;;;;;;;22.04;27.48;99390.97;4908768;29;20058;-86
2021/05/31 11:13:43;;;;;;;4.28;1.80;;;;;;;21.84;26.96;99401.72;4841459;29;20053;-86
2021/05/31 11:16:55;;;;;;;2.35;1.60;;;;;;;21.40;28.61;99403.22;4851330;29;20049;-86
2021/05/31 12:36:43;;;;;;;4.10;2.25;;;;;;;23.87;26.56;99346.34;4990407;28;20046;-87
2021/05/31 12:46:33;;;;;;;4.20;1.50;;;;;;;23.02;26.92;99313.72;4994255;28;20062;-86
2021/05/31 12:57:52;;;;;;;3.20;1.88;;;;;;;22.87;28.11;99303.31;5101519;27;20400;-89
2021/05/31 13:00:47;;;;;;;2.22;1.60;;;;;;;22.81;27.02;99296.91;5083697;28;20052;-88
2021/05/31 13:03:30;;;;;;;2.53;1.65;;;;;;;22.69;28.20;99308.16;5088355;28;20507;-87
2021/05/31 13:06:05;;;;;;;2.13;1.67;;;;;;;23.21;26.07;99298.38;5085910;28;20040;-87
2021/05/31 13:08:57;;;;;;;4.07;1.60;;;;;;;23.54;26.42;99293.63;5084756;28;20091;-86
2021/05/31 13:11:23;;;;;;;2.85;1.40;;;;;;;23.43;25.53;99297.47;5089343;28;20106;-86
2021/05/31 13:14:04;;;;;;;3.75;1.40;;;;;;;23.28;25.61;99310.09;5090109;28;20555;-84
2021/05/31 13:16:36;;;;;;;1.42;1.30;;;;;;;23.02;26.48;99291.53;5088331;28;20040;-86
2021/05/31 13:19:18;;;;;;;2.45;1.33;;;;;;;23.01;26.30;99287.09;5089053;28;20143;-87
2021/05/31 13:21:44;;;;;;;1.50;1.40;;;;;;;23.55;27.87;99288.94;5084066;28;20106;-86
2021/05/31 13:24:23;;;;;;;2.38;1.13;;;;;;;23.38;27.66;99286.31;5088692;28;20135;-84
2021/05/31 13:26:55;;;;;;;1.38;1.17;;;;;;;22.97;28.31;99287.63;5090711;28;20476;-88
2021/05/31 13:29:49;;;;;;;5.07;1.35;;;;;;;23.01;27.61;99290.72;5091221;28;20056;-87
2021/05/31 13:32:47;;;;;;;;;;;;;;;;;;;;;
2021/05/31 13:35:23;;;;;;;1.58;1.30;;;;;;;23.27;28.35;99282.63;5066156;28;20052;-87
2021/05/31 13:40:43;;;;;;;3.05;2.03;;;;;;;23.58;26.09;99272.59;5060540;28;20404;-86
2021/05/31 13:43:17;;;;;;;1.52;1.38;;;;;;;23.57;27.23;99268.13;5065386;28;20651;-88
2021/05/31 13:46:07;;;;;;;2.53;1.40;;;;;;;24.00;28.02;99279.22;5062268;28;20049;-89
2021/05/31 13:48:35;;;;;;;3.45;1.40;;;;;;;23.95;28.73;99257.81;5068865;28;21466;-89
2021/05/31 13:54:07;;;;;;;2.25;1.30;;;;;;;24.05;26.59;99259.78;5064291;28;20056;-87
2021/05/31 13:57:03;;;;;;;2.00;1.40;;;;;;;23.87;27.31;99263.88;5068504;28;20140;-91
2021/05/31 13:59:30;;;;;;;2.08;1.40;;;;;;;23.49;27.76;99258.38;5053016;28;20053;-87
2021/05/31 14:02:29;;;;;;;1.98;1.40;;;;;;;23.48;27.02;99264.19;5061787;28;20056;-87
2021/05/31 14:05:09;;;;;;;3.13;1.67;;;;;;;23.61;27.43;99257.34;5061211;28;20048;-88
2021/05/31 14:07:51;;;;;;;;;;;;;;;23.84;27.03;99254.13;5060107;28;20095;-88
2021/05/31 14:14:13;;;;;;;3.13;1.50;;;;;;;23.89;27.32;99239.44;5039879;28;20049;-90
2021/05/31 14:25:35;;;;;;;;;;;;;;;23.13;26.63;99248.97;5036274;28;20052;-88
2021/05/31 14:28:39;;;;;;;1.75;1.02;;;;;;;22.99;26.42;99229.16;5054840;28;19921;-89
2021/05/31 14:31:50;;;;;;;1.50;1.40;;;;;;;23.24;28.17;99222.97;5046774;28;20056;-90
2021/05/31 14:34:52;;;;;;;7.35;2.67;;;;;;;23.93;27.76;99223.09;5027469;28;20053;-89
2021/05/31 14:37:48;;;;;;;1.30;1.10;;;;;;;24.30;27.08;99224.88;5046208;28;20496;-90
2021/05/31 14:40:58;;;;;;;;;;;;;;;;;;;;;
2021/05/31 14:43:38;;;;;;;6.45;1.30;;;;;;;24.41;25.32;99204.34;5048917;28;20060;-89
2021/05/31 14:46:19;;;;;;;1.63;1.50;;;;;;;23.76;24.95;99215.78;5053683;28;20057;-88
2021/05/31 14:48:49;;;;;;;1.80;1.38;;;;;;;23.15;26.38;99213.47;5050437;28;20310;-88
2021/05/31 14:54:43;;;;;;;1.73;1.58;;;;;;;24.06;27.53;99222.59;5053627;28;20107;-90
2021/05/31 14:57:32;;;;;;;5.32;1.50;;;;;;;23.96;26.25;99225.34;4971793;28;20503;-90
2021/05/31 15:06:40;;;;;;;2.20;1.27;;;;;;;23.81;25.65;99203.88;5016433;28;20504;-85
2021/05/31 15:40:58;;;;;;;2.08;1.38;;;;;;;22.86;27.07;99201.88;5038917;28;20049;-89
2021/05/31 15:54:49;;;;;;;3.13;1.40;;;;;;;23.16;26.23;99192.97;4820687;29;20364;-89
2021/05/31 15:58:12;;;;;;;2.97;1.50;;;;;;;23.38;28.39;99200.31;4897346;29;20104;-89
2021/05/31 16:01:13;;;;;;;1.63;1.30;;;;;;;23.27;27.48;99196.66;5035108;28;20049;-86
2021/05/31 16:06:46;;;;;;;5.90;1.42;;;;;;;22.68;27.33;99173.47;5029639;28;20112;-87
2021/05/31 16:09:13;;;;;;;1.88;1.38;;;;;;;23.04;26.64;99184.00;5032914;28;20128;-89
2021/05/31 16:11:45;;;;;;;4.05;1.50;;;;;;;22.96;25.69;99180.63;5034635;28;20136;-88
2021/05/31 16:14:33;;;;;;;2.47;1.60;;;;;;;22.71;26.36;99181.25;5036171;28;20057;-88
2021/05/31 16:19:49;;;;;;;3.47;1.90;;;;;;;22.91;25.66;99174.19;5011620;28;20046;-88
2021/05/31 16:22:30;;;;;;;3.28;1.50;;;;;;;22.72;26.88;99187.66;5034120;28;20049;-89
2021/05/31 16:25:20;;;;;;;8.02;1.50;;;;;;;22.93;27.35;99183.09;5030879;28;20516;-90
2021/05/31 16:27:54;;;;;;;;;;;;;;;22.79;28.20;99188.22;5030929;28;20065;-89
2021/05/31 16:30:26;;;;;;;4.88;2.00;;;;;;;22.66;27.83;99181.22;5031951;28;20382;-90
2021/05/31 16:33:21;;;;;;;;;;;;;;;;;;;;;
2021/05/31 16:35:55;;;;;;;1.45;1.25;;;;;;;22.49;27.09;99186.03;5032112;28;20055;-88
2021/05/31 16:38:24;;;;;;;1.90;1.48;;;;;;;22.19;28.15;99166.09;5033394;28;20524;-91
2021/05/31 16:41:01;;;;;;;;;;;;;;;;;;;;;
2021/05/31 16:43:48;;;;;;;1.35;1.17;;;;;;;22.50;28.11;99179.41;5032569;28;20042;-89
2021/05/31 16:46:27;;;;;;;3.72;1.90;;;;;;;22.61;29.12;99168.16;5022861;28;20183;-89
2021/05/31 16:49:41;;;;;;;1.83;1.55;;;;;;;22.31;28.13;99165.06;5039278;28;20080;-89
2021/05/31 16:52:24;;;;;;;3.67;1.23;;;;;;;22.29;28.60;99165.34;5032827;28;20444;-90
2021/05/31 16:54:52;;;;;;;5.03;1.80;;;;;;;22.19;28.77;99168.00;5032008;28;20429;-87
2021/05/31 16:57:26;;;;;;;7.15;1.73;;;;;;;22.06;28.78;99166.50;5023019;28;20053;-91
2021/05/31 16:59:54;;;;;;;7.63;1.85;;;;;;;21.84;28.64;99159.03;5031731;28;20042;-88
2021/05/31 17:02:27;;;;;;;1.70;1.60;;;;;;;21.72;28.09;99164.75;5031954;28;20508;-90
2021/05/31 17:04:59;;;;;;;3.25;1.60;;;;;;;21.82;28.86;99161.25;5023738;28;20045;-87
2021/05/31 17:07:33;;;;;;;2.88;1.45;;;;;;;21.79;29.42;99153.47;5031675;28;20334;-91
2021/05/31 17:10:13;;;;;;;2.05;1.27;;;;;;;21.75;28.73;99155.06;5031335;28;20137;-91
2021/05/31 17:15:27;;;;;;;1.98;1.40;;;;;;;21.62;29.36;99178.44;5031286;28;20507;-91
2021/05/31 17:21:01;;;;;;;1.55;1.45;;;;;;;21.64;28.89;99158.81;5029321;28;20567;-91
2021/05/31 17:23:27;;;;;;;1.80;1.55;;;;;;;21.40;28.91;99161.81;5031623;28;20528;-89
2021/05/31 17:25:55;;;;;;;3.00;1.60;;;;;;;21.06;29.74;99156.34;5034486;28;20046;-91
2021/05/31 17:28:27;;;;;;;2.85;1.73;;;;;;;21.06;29.64;99169.34;5032819;28;20397;-89
2021/05/31 17:31:14;;;;;;;2.53;1.45;;;;;;;21.07;30.07;99182.91;5028489;28;20045;-91
2021/05/31 17:33:42;;;;;;;2.17;1.30;;;;;;;20.97;29.88;99168.91;5032846;28;20056;-89
2021/05/31 17:36:10;;;;;;;2.75;1.90;;;;;;;20.96;29.86;99175.56;5032349;28;20046;-90
2021/05/31 17:38:42;;;;;;;4.40;1.50;;;;;;;20.62;29.58;99170.81;5031155;28;20057;-91
2021/05/31 17:41:10;;;;;;;2.45;2.00;;;;;;;20.45;30.47;99167.25;5031433;28;20049;-90
2021/05/31 17:43:37;;;;;;;2.33;1.63;;;;;;;20.39;31.08;99171.00;5030231;28;20230;-90
2021/05/31 17:46:06;;;;;;;1.35;1.23;;;;;;;20.45;30.73;99165.31;5030470;28;20054;-91
2021/05/31 17:48:35;;;;;;;2.20;1.98;;;;;;;20.50;30.61;99159.88;5025808;28;20107;-90
2021/05/31 17:51:02;;;;;;;1.63;1.48;;;;;;;20.51;31.35;99167.06;5035716;28;20083;-91
2021/05/31 17:53:38;;;;;;;4.47;1.80;;;;;;;20.41;32.57;99169.63;5025877;28;20103;-90
2021/05/31 17:56:06;;;;;;;2.67;1.73;;;;;;;20.34;32.55;99177.28;5033979;28;20048;-91
2021/05/31 17:58:45;;;;;;;3.33;1.63;;;;;;;20.18;31.83;99183.59;5034650;28;20149;-90
2021/05/31 18:01:15;;;;;;;1.80;1.70;;;;;;;19.92;33.07;99178.41;5035196;28;20053;-91